sensor_id;sensor_type;location;lat;lon;timestamp;pressure;altitude;pressure_sealevel;temperature;humidity
32452;BME280;45528;52.102;5.242;2024-02-28T00:01:48;101592.0;;;9.8;59.74
32452;BME280;45528;52.102;5.242;2024-02-28T00:03:24;101589.0;;;9.76;59.53
32452;BME280;45528;52.102;5.242;2024-02-28T00:05:01;101584.0;;;9.71;59.6
32452;BME280;45528;52.102;5.242;2024-02-28T00:08:13;101584.0;;;9.64;59.55
32452;BME280;45528;52.102;5.242;2024-02-28T00:09:49;101586.0;;;9.59;59.5
32452;BME280;45528;52.102;5.242;2024-02-28T00:11:25;101585.0;;;9.57;59.3
32452;BME280;45528;52.102;5.242;2024-02-28T00:14:37;101581.0;;;9.56;59.34
32452;BME280;45528;52.102;5.242;2024-02-28T00:16:17;101581.0;;;9.49;59.54
32452;BME280;45528;52.102;5.242;2024-02-28T00:17:54;101585.0;;;9.41;59.64
32452;BME280;45528;52.102;5.242;2024-02-28T00:19:31;101589.0;;;9.33;59.78
32452;BME280;45528;52.102;5.242;2024-02-28T00:22:43;101585.0;;;9.31;59.78
32452;BME280;45528;52.102;5.242;2024-02-28T00:24:19;101588.0;;;9.23;59.83
32452;BME280;45528;52.102;5.242;2024-02-28T00:25:55;101588.0;;;9.19;59.86
32452;BME280;45528;52.102;5.242;2024-02-28T00:29:08;101589.0;;;9.17;59.9
32452;BME280;45528;52.102;5.242;2024-02-28T00:30:44;101595.0;;;9.13;59.98
32452;BME280;45528;52.102;5.242;2024-02-28T00:32:21;101592.0;;;9.14;59.85
32452;BME280;45528;52.102;5.242;2024-02-28T00:35:33;101591.0;;;9.06;59.86
32452;BME280;45528;52.102;5.242;2024-02-28T00:37:09;101592.0;;;9.01;60.1
32452;BME280;45528;52.102;5.242;2024-02-28T00:38:45;101587.0;;;8.97;59.99
32452;BME280;45528;52.102;5.242;2024-02-28T00:40:21;101585.0;;;8.92;59.96
32452;BME280;45528;52.102;5.242;2024-02-28T00:43:33;101589.0;;;8.89;59.86
32452;BME280;45528;52.102;5.242;2024-02-28T00:45:09;101592.0;;;8.91;59.87
32452;BME280;45528;52.102;5.242;2024-02-28T00:46:45;101590.0;;;8.83;59.86
32452;BME280;45528;52.102;5.242;2024-02-28T00:49:58;101585.0;;;8.81;60.17
32452;BME280;45528;52.102;5.242;2024-02-28T00:51:34;101581.0;;;8.78;60.15
32452;BME280;45528;52.102;5.242;2024-02-28T00:53:10;101586.0;;;8.74;60.16
32452;BME280;45528;52.102;5.242;2024-02-28T00:56:22;101584.0;;;8.72;60.19
32452;BME280;45528;52.102;5.242;2024-02-28T00:57:58;101580.0;;;8.66;60.29
32452;BME280;45528;52.102;5.242;2024-02-28T00:59:34;101581.0;;;8.64;60.16
32452;BME280;45528;52.102;5.242;2024-02-28T01:02:48;101587.0;;;8.63;60.32
32452;BME280;45528;52.102;5.242;2024-02-28T01:04:24;101586.0;;;8.61;60.37
32452;BME280;45528;52.102;5.242;2024-02-28T01:06:00;101582.0;;;8.58;60.38
32452;BME280;45528;52.102;5.242;2024-02-28T01:07:36;101583.0;;;8.56;60.25
32452;BME280;45528;52.102;5.242;2024-02-28T01:10:48;101582.0;;;8.51;60.35
32452;BME280;45528;52.102;5.242;2024-02-28T01:12:24;101580.0;;;8.49;60.36
32452;BME280;45528;52.102;5.242;2024-02-28T01:14:00;101582.0;;;8.44;60.27
32452;BME280;45528;52.102;5.242;2024-02-28T01:17:15;101582.0;;;8.43;60.42
32452;BME280;45528;52.102;5.242;2024-02-28T01:18:51;101578.0;;;8.4;60.44
32452;BME280;45528;52.102;5.242;2024-02-28T01:20:28;101577.0;;;8.39;60.38
32452;BME280;45528;52.102;5.242;2024-02-28T01:23:40;101577.0;;;8.34;60.28
32452;BME280;45528;52.102;5.242;2024-02-28T01:25:16;101581.0;;;8.34;60.4
32452;BME280;45528;52.102;5.242;2024-02-28T01:26:52;101580.0;;;8.3;60.39
32452;BME280;45528;52.102;5.242;2024-02-28T01:28:28;101574.0;;;8.28;60.33
32452;BME280;45528;52.102;5.242;2024-02-28T01:31:42;101571.0;;;8.25;60.39
32452;BME280;45528;52.102;5.242;2024-02-28T01:33:18;101576.0;;;8.23;60.09
32452;BME280;45528;52.102;5.242;2024-02-28T01:34:58;101572.0;;;8.26;60.24
32452;BME280;45528;52.102;5.242;2024-02-28T01:38:10;101567.0;;;8.22;60.28
32452;BME280;45528;52.102;5.242;2024-02-28T01:39:46;101565.0;;;8.19;60.23
32452;BME280;45528;52.102;5.242;2024-02-28T01:41:22;101568.0;;;8.18;60.32
32452;BME280;45528;52.102;5.242;2024-02-28T01:44:43;101566.0;;;8.17;60.54
32452;BME280;45528;52.102;5.242;2024-02-28T01:46:24;101564.0;;;8.14;60.32
32452;BME280;45528;52.102;5.242;2024-02-28T01:48:00;101561.0;;;8.13;60.46
32452;BME280;45528;52.102;5.242;2024-02-28T01:49:38;101560.0;;;8.08;60.5
32452;BME280;45528;52.102;5.242;2024-02-28T01:52:52;101561.0;;;8.1;60.2
32452;BME280;45528;52.102;5.242;2024-02-28T01:54:29;101562.0;;;8.11;60.22
32452;BME280;45528;52.102;5.242;2024-02-28T01:56:05;101560.0;;;8.1;60.25
32452;BME280;45528;52.102;5.242;2024-02-28T01:59:18;101567.0;;;8.09;60.39
32452;BME280;45528;52.102;5.242;2024-02-28T02:00:55;101565.0;;;8.06;60.32
32452;BME280;45528;52.102;5.242;2024-02-28T02:02:32;101571.0;;;8.03;60.3
32452;BME280;45528;52.102;5.242;2024-02-28T02:04:08;101568.0;;;8.01;60.44
32452;BME280;45528;52.102;5.242;2024-02-28T02:07:20;101569.0;;;7.98;60.49
32452;BME280;45528;52.102;5.242;2024-02-28T02:08:56;101570.0;;;7.97;60.61
32452;BME280;45528;52.102;5.242;2024-02-28T02:10:32;101569.0;;;7.95;60.58
32452;BME280;45528;52.102;5.242;2024-02-28T02:13:47;101572.0;;;7.94;60.45
32452;BME280;45528;52.102;5.242;2024-02-28T02:15:23;101580.0;;;7.95;60.59
32452;BME280;45528;52.102;5.242;2024-02-28T02:17:00;101578.0;;;7.97;60.67
32452;BME280;45528;52.102;5.242;2024-02-28T02:20:16;101575.0;;;7.97;60.61
32452;BME280;45528;52.102;5.242;2024-02-28T02:21:58;101580.0;;;7.98;60.54
32452;BME280;45528;52.102;5.242;2024-02-28T02:23:34;101580.0;;;7.96;60.55
32452;BME280;45528;52.102;5.242;2024-02-28T02:25:10;101578.0;;;7.94;60.64
32452;BME280;45528;52.102;5.242;2024-02-28T02:28:22;101578.0;;;7.92;60.74
32452;BME280;45528;52.102;5.242;2024-02-28T02:29:58;101577.0;;;7.96;60.58
32452;BME280;45528;52.102;5.242;2024-02-28T02:31:35;101575.0;;;7.94;60.6
32452;BME280;45528;52.102;5.242;2024-02-28T02:34:47;101580.0;;;7.94;60.6
32452;BME280;45528;52.102;5.242;2024-02-28T02:36:23;101577.0;;;7.94;60.57
32452;BME280;45528;52.102;5.242;2024-02-28T02:37:59;101573.0;;;7.92;60.65
32452;BME280;45528;52.102;5.242;2024-02-28T02:39:35;101572.0;;;7.92;60.69
32452;BME280;45528;52.102;5.242;2024-02-28T02:42:47;101572.0;;;7.92;60.78
32452;BME280;45528;52.102;5.242;2024-02-28T02:44:24;101567.0;;;7.97;60.82
32452;BME280;45528;52.102;5.242;2024-02-28T02:46:00;101573.0;;;7.99;60.85
32452;BME280;45528;52.102;5.242;2024-02-28T02:49:12;101565.0;;;8.05;60.96
32452;BME280;45528;52.102;5.242;2024-02-28T02:50:48;101560.0;;;8.06;61.03
32452;BME280;45528;52.102;5.242;2024-02-28T02:52:24;101565.0;;;8.07;60.83
32452;BME280;45528;52.102;5.242;2024-02-28T02:55:41;101564.0;;;8.07;60.86
32452;BME280;45528;52.102;5.242;2024-02-28T02:57:17;101566.0;;;8.08;60.82
32452;BME280;45528;52.102;5.242;2024-02-28T02:58:53;101568.0;;;8.07;60.97
32452;BME280;45528;52.102;5.242;2024-02-28T03:00:29;101567.0;;;8.07;60.89
32452;BME280;45528;52.102;5.242;2024-02-28T03:03:42;101571.0;;;8.08;60.78
32452;BME280;45528;52.102;5.242;2024-02-28T03:05:18;101575.0;;;8.07;60.74
32452;BME280;45528;52.102;5.242;2024-02-28T03:06:54;101573.0;;;8.06;60.76
32452;BME280;45528;52.102;5.242;2024-02-28T03:10:07;101569.0;;;8.02;60.75
32452;BME280;45528;52.102;5.242;2024-02-28T03:11:42;101569.0;;;8.03;60.82
32452;BME280;45528;52.102;5.242;2024-02-28T03:13:18;101567.0;;;8.03;60.78
32452;BME280;45528;52.102;5.242;2024-02-28T03:16:32;101560.0;;;8.0;60.85
32452;BME280;45528;52.102;5.242;2024-02-28T03:18:08;101559.0;;;8.0;60.82
32452;BME280;45528;52.102;5.242;2024-02-28T03:19:44;101557.0;;;8.01;60.93
32452;BME280;45528;52.102;5.242;2024-02-28T03:22:56;101550.0;;;8.05;60.88
32452;BME280;45528;52.102;5.242;2024-02-28T03:24:32;101551.0;;;8.07;60.89
32452;BME280;45528;52.102;5.242;2024-02-28T03:26:08;101552.0;;;8.11;60.94
32452;BME280;45528;52.102;5.242;2024-02-28T03:27:44;101552.0;;;8.17;61.05
32452;BME280;45528;52.102;5.242;2024-02-28T03:30:56;101551.0;;;8.22;61.12
32452;BME280;45528;52.102;5.242;2024-02-28T03:32:33;101557.0;;;8.24;61.03
32452;BME280;45528;52.102;5.242;2024-02-28T03:34:09;101561.0;;;8.3;61.17
32452;BME280;45528;52.102;5.242;2024-02-28T03:37:21;101560.0;;;8.33;61.17
32452;BME280;45528;52.102;5.242;2024-02-28T03:39:00;101560.0;;;8.39;61.14
32452;BME280;45528;52.102;5.242;2024-02-28T03:40:36;101562.0;;;8.48;61.06
32452;BME280;45528;52.102;5.242;2024-02-28T03:43:48;101561.0;;;8.52;61.09
32452;BME280;45528;52.102;5.242;2024-02-28T03:45:27;101557.0;;;8.59;60.87
32452;BME280;45528;52.102;5.242;2024-02-28T03:47:05;101558.0;;;8.64;60.93
32452;BME280;45528;52.102;5.242;2024-02-28T03:48:41;101555.0;;;8.71;61.01
32452;BME280;45528;52.102;5.242;2024-02-28T03:51:53;101553.0;;;8.76;61.02
32452;BME280;45528;52.102;5.242;2024-02-28T03:53:29;101556.0;;;8.81;61.04
32452;BME280;45528;52.102;5.242;2024-02-28T03:55:05;101557.0;;;8.86;60.85
32452;BME280;45528;52.102;5.242;2024-02-28T03:58:18;101555.0;;;8.92;60.89
32452;BME280;45528;52.102;5.242;2024-02-28T03:59:54;101556.0;;;8.98;60.96
32452;BME280;45528;52.102;5.242;2024-02-28T04:01:30;101559.0;;;9.03;60.69
32452;BME280;45528;52.102;5.242;2024-02-28T04:04:43;101560.0;;;9.06;60.89
32452;BME280;45528;52.102;5.242;2024-02-28T04:06:19;101561.0;;;9.14;60.86
32452;BME280;45528;52.102;5.242;2024-02-28T04:07:55;101561.0;;;9.18;60.78
32452;BME280;45528;52.102;5.242;2024-02-28T04:11:07;101560.0;;;9.22;60.73
32452;BME280;45528;52.102;5.242;2024-02-28T04:12:43;101562.0;;;9.24;60.78
32452;BME280;45528;52.102;5.242;2024-02-28T04:14:19;101563.0;;;9.27;60.81
32452;BME280;45528;52.102;5.242;2024-02-28T04:15:55;101565.0;;;9.32;60.83
32452;BME280;45528;52.102;5.242;2024-02-28T04:19:07;101569.0;;;9.34;60.73
32452;BME280;45528;52.102;5.242;2024-02-28T04:20:44;101563.0;;;9.39;60.74
32452;BME280;45528;52.102;5.242;2024-02-28T04:22:20;101564.0;;;9.41;60.68
32452;BME280;45528;52.102;5.242;2024-02-28T04:25:32;101561.0;;;9.42;60.65
32452;BME280;45528;52.102;5.242;2024-02-28T04:27:08;101566.0;;;9.47;60.59
32452;BME280;45528;52.102;5.242;2024-02-28T04:28:44;101567.0;;;9.48;60.46
32452;BME280;45528;52.102;5.242;2024-02-28T04:31:56;101571.0;;;9.5;60.54
32452;BME280;45528;52.102;5.242;2024-02-28T04:33:33;101566.0;;;9.53;60.57
32452;BME280;45528;52.102;5.242;2024-02-28T04:35:09;101566.0;;;9.52;60.5
32452;BME280;45528;52.102;5.242;2024-02-28T04:36:46;101565.0;;;9.56;60.57
32452;BME280;45528;52.102;5.242;2024-02-28T04:39:58;101562.0;;;9.59;60.58
32452;BME280;45528;52.102;5.242;2024-02-28T04:41:34;101564.0;;;9.61;60.59
32452;BME280;45528;52.102;5.242;2024-02-28T04:43:10;101565.0;;;9.64;60.55
32452;BME280;45528;52.102;5.242;2024-02-28T04:46:22;101572.0;;;9.66;60.45
32452;BME280;45528;52.102;5.242;2024-02-28T04:47:59;101580.0;;;9.69;60.34
32452;BME280;45528;52.102;5.242;2024-02-28T04:49:36;101584.0;;;9.72;60.44
32452;BME280;45528;52.102;5.242;2024-02-28T04:52:51;101582.0;;;9.76;60.27
32452;BME280;45528;52.102;5.242;2024-02-28T04:54:27;101588.0;;;9.74;60.31
32452;BME280;45528;52.102;5.242;2024-02-28T04:56:04;101590.0;;;9.76;60.15
32452;BME280;45528;52.102;5.242;2024-02-28T04:59:15;101595.0;;;9.76;60.27
32452;BME280;45528;52.102;5.242;2024-02-28T05:00:51;101595.0;;;9.8;60.25
32452;BME280;45528;52.102;5.242;2024-02-28T05:02:27;101595.0;;;9.81;60.39
32452;BME280;45528;52.102;5.242;2024-02-28T05:04:04;101598.0;;;9.85;60.38
32452;BME280;45528;52.102;5.242;2024-02-28T05:07:16;101595.0;;;9.85;60.41
32452;BME280;45528;52.102;5.242;2024-02-28T05:08:52;101597.0;;;9.9;60.33
32452;BME280;45528;52.102;5.242;2024-02-28T05:10:28;101599.0;;;9.9;60.33
32452;BME280;45528;52.102;5.242;2024-02-28T05:13:41;101594.0;;;9.91;60.31
32452;BME280;45528;52.102;5.242;2024-02-28T05:15:17;101594.0;;;9.96;60.3
32452;BME280;45528;52.102;5.242;2024-02-28T05:16:53;101593.0;;;9.94;60.2
32452;BME280;45528;52.102;5.242;2024-02-28T05:20:07;101598.0;;;10.0;60.08
32452;BME280;45528;52.102;5.242;2024-02-28T05:21:43;101596.0;;;10.03;60.11
32452;BME280;45528;52.102;5.242;2024-02-28T05:23:20;101599.0;;;10.06;60.0
32452;BME280;45528;52.102;5.242;2024-02-28T05:24:56;101602.0;;;10.13;59.96
32452;BME280;45528;52.102;5.242;2024-02-28T05:28:10;101600.0;;;10.14;59.78
32452;BME280;45528;52.102;5.242;2024-02-28T05:29:46;101600.0;;;10.11;59.97
32452;BME280;45528;52.102;5.242;2024-02-28T05:31:24;101596.0;;;10.13;59.97
32452;BME280;45528;52.102;5.242;2024-02-28T05:34:37;101592.0;;;10.15;59.91
32452;BME280;45528;52.102;5.242;2024-02-28T05:36:14;101593.0;;;10.17;59.98
32452;BME280;45528;52.102;5.242;2024-02-28T05:37:53;101593.0;;;10.21;59.88
32452;BME280;45528;52.102;5.242;2024-02-28T05:41:05;101593.0;;;10.23;59.8
32452;BME280;45528;52.102;5.242;2024-02-28T05:42:41;101592.0;;;10.19;59.98
32452;BME280;45528;52.102;5.242;2024-02-28T05:44:17;101594.0;;;10.27;59.7
32452;BME280;45528;52.102;5.242;2024-02-28T05:45:53;101597.0;;;10.28;59.66
32452;BME280;45528;52.102;5.242;2024-02-28T05:50:42;101593.0;;;10.28;59.7
32452;BME280;45528;52.102;5.242;2024-02-28T05:52:18;101595.0;;;10.24;59.89
32452;BME280;45528;52.102;5.242;2024-02-28T05:55:30;101593.0;;;10.33;59.83
32452;BME280;45528;52.102;5.242;2024-02-28T05:57:06;101593.0;;;10.39;59.74
32452;BME280;45528;52.102;5.242;2024-02-28T05:58:43;101592.0;;;10.41;59.58
32452;BME280;45528;52.102;5.242;2024-02-28T06:01:55;101594.0;;;10.39;59.68
32452;BME280;45528;52.102;5.242;2024-02-28T06:03:32;101600.0;;;10.37;59.77
32452;BME280;45528;52.102;5.242;2024-02-28T06:05:08;101596.0;;;10.28;60.05
32452;BME280;45528;52.102;5.242;2024-02-28T06:06:44;101598.0;;;10.42;59.71
32452;BME280;45528;52.102;5.242;2024-02-28T06:09:56;101598.0;;;10.51;59.48
32452;BME280;45528;52.102;5.242;2024-02-28T06:11:32;101603.0;;;10.54;59.39
32452;BME280;45528;52.102;5.242;2024-02-28T06:13:08;101603.0;;;10.55;59.52
32452;BME280;45528;52.102;5.242;2024-02-28T06:16:20;101602.0;;;10.6;59.48
32452;BME280;45528;52.102;5.242;2024-02-28T06:19:32;101605.0;;;10.64;59.53
32452;BME280;45528;52.102;5.242;2024-02-28T06:22:45;101608.0;;;10.63;59.65
32452;BME280;45528;52.102;5.242;2024-02-28T06:24:21;101605.0;;;10.69;59.45
32452;BME280;45528;52.102;5.242;2024-02-28T06:25:57;101602.0;;;10.65;59.54
32452;BME280;45528;52.102;5.242;2024-02-28T06:29:09;101611.0;;;10.65;59.57
32452;BME280;45528;52.102;5.242;2024-02-28T06:30:45;101608.0;;;10.61;59.86
32452;BME280;45528;52.102;5.242;2024-02-28T06:32:23;101614.0;;;10.7;59.64
32452;BME280;45528;52.102;5.242;2024-02-28T06:33:59;101612.0;;;10.66;59.73
32452;BME280;45528;52.102;5.242;2024-02-28T06:37:11;101613.0;;;10.7;59.75
32452;BME280;45528;52.102;5.242;2024-02-28T06:38:50;101614.0;;;10.72;59.79
32452;BME280;45528;52.102;5.242;2024-02-28T06:40:26;101622.0;;;10.71;59.89
32452;BME280;45528;52.102;5.242;2024-02-28T06:43:38;101626.0;;;10.78;59.7
32452;BME280;45528;52.102;5.242;2024-02-28T06:45:14;101630.0;;;10.85;59.55
32452;BME280;45528;52.102;5.242;2024-02-28T06:46:50;101635.0;;;10.87;59.51
32452;BME280;45528;52.102;5.242;2024-02-28T06:51:43;101631.0;;;10.89;59.71
32452;BME280;45528;52.102;5.242;2024-02-28T06:53:19;101638.0;;;10.95;59.59
32452;BME280;45528;52.102;5.242;2024-02-28T06:54:55;101648.0;;;10.97;59.64
32452;BME280;45528;52.102;5.242;2024-02-28T06:58:08;101655.0;;;10.97;59.77
32452;BME280;45528;52.102;5.242;2024-02-28T06:59:44;101655.0;;;11.0;59.81
32452;BME280;45528;52.102;5.242;2024-02-28T07:01:23;101657.0;;;11.06;59.7
32452;BME280;45528;52.102;5.242;2024-02-28T07:04:35;101660.0;;;11.05;59.84
32452;BME280;45528;52.102;5.242;2024-02-28T07:06:11;101655.0;;;11.09;59.76
32452;BME280;45528;52.102;5.242;2024-02-28T07:07:47;101653.0;;;11.13;59.81
32452;BME280;45528;52.102;5.242;2024-02-28T07:11:00;101656.0;;;11.17;59.62
32452;BME280;45528;52.102;5.242;2024-02-28T07:12:36;101662.0;;;11.18;59.68
32452;BME280;45528;52.102;5.242;2024-02-28T07:14:12;101663.0;;;11.19;59.95
32452;BME280;45528;52.102;5.242;2024-02-28T07:15:48;101660.0;;;11.2;59.7
32452;BME280;45528;52.102;5.242;2024-02-28T07:19:00;101661.0;;;11.21;59.63
32452;BME280;45528;52.102;5.242;2024-02-28T07:20:37;101661.0;;;11.27;59.65
32452;BME280;45528;52.102;5.242;2024-02-28T07:22:13;101662.0;;;11.29;59.59
32452;BME280;45528;52.102;5.242;2024-02-28T07:25:25;101660.0;;;11.29;59.81
32452;BME280;45528;52.102;5.242;2024-02-28T07:27:02;101661.0;;;11.32;59.73
32452;BME280;45528;52.102;5.242;2024-02-28T07:28:38;101662.0;;;11.29;59.64
32452;BME280;45528;52.102;5.242;2024-02-28T07:31:50;101665.0;;;11.29;59.82
32452;BME280;45528;52.102;5.242;2024-02-28T07:33:26;101662.0;;;11.26;59.88
32452;BME280;45528;52.102;5.242;2024-02-28T07:35:02;101664.0;;;11.28;59.77
32452;BME280;45528;52.102;5.242;2024-02-28T07:38:14;101676.0;;;11.26;59.93
32452;BME280;45528;52.102;5.242;2024-02-28T07:39:50;101686.0;;;11.27;59.8
32452;BME280;45528;52.102;5.242;2024-02-28T07:41:27;101692.0;;;11.38;59.66
32452;BME280;45528;52.102;5.242;2024-02-28T07:43:04;101694.0;;;11.38;59.54
32452;BME280;45528;52.102;5.242;2024-02-28T07:46:16;101696.0;;;11.14;60.15
32452;BME280;45528;52.102;5.242;2024-02-28T07:47:52;101695.0;;;11.29;59.89
32452;BME280;45528;52.102;5.242;2024-02-28T07:49:28;101690.0;;;11.24;60.19
32452;BME280;45528;52.102;5.242;2024-02-28T07:52:40;101691.0;;;11.27;60.31
32452;BME280;45528;52.102;5.242;2024-02-28T07:54:16;101691.0;;;11.36;60.04
32452;BME280;45528;52.102;5.242;2024-02-28T07:55:52;101694.0;;;11.37;60.05
32452;BME280;45528;52.102;5.242;2024-02-28T07:59:07;101705.0;;;11.43;60.04
32452;BME280;45528;52.102;5.242;2024-02-28T08:00:43;101705.0;;;11.47;59.89
32452;BME280;45528;52.102;5.242;2024-02-28T08:02:20;101707.0;;;11.45;60.08
32452;BME280;45528;52.102;5.242;2024-02-28T08:03:56;101698.0;;;11.45;60.04
32452;BME280;45528;52.102;5.242;2024-02-28T08:07:08;101698.0;;;11.49;60.07
32452;BME280;45528;52.102;5.242;2024-02-28T08:08:44;101710.0;;;11.45;60.25
32452;BME280;45528;52.102;5.242;2024-02-28T08:10:20;101702.0;;;11.56;60.07
32452;BME280;45528;52.102;5.242;2024-02-28T08:13:32;101712.0;;;11.46;60.41
32452;BME280;45528;52.102;5.242;2024-02-28T08:15:09;101708.0;;;11.55;60.2
32452;BME280;45528;52.102;5.242;2024-02-28T08:16:46;101716.0;;;11.59;60.25
32452;BME280;45528;52.102;5.242;2024-02-28T08:19:58;101718.0;;;11.64;60.15
32452;BME280;45528;52.102;5.242;2024-02-28T08:21:34;101718.0;;;11.75;59.66
32452;BME280;45528;52.102;5.242;2024-02-28T08:23:10;101722.0;;;11.75;59.9
32452;BME280;45528;52.102;5.242;2024-02-28T08:26:23;101722.0;;;11.83;59.78
32452;BME280;45528;52.102;5.242;2024-02-28T08:27:59;101723.0;;;11.91;59.68
32452;BME280;45528;52.102;5.242;2024-02-28T08:29:35;101722.0;;;11.88;59.91
32452;BME280;45528;52.102;5.242;2024-02-28T08:31:12;101725.0;;;11.92;59.84
32452;BME280;45528;52.102;5.242;2024-02-28T08:34:24;101728.0;;;11.92;59.83
32452;BME280;45528;52.102;5.242;2024-02-28T08:36:00;101730.0;;;11.94;59.99
32452;BME280;45528;52.102;5.242;2024-02-28T08:37:38;101723.0;;;11.82;60.37
32452;BME280;45528;52.102;5.242;2024-02-28T08:40:51;101722.0;;;11.91;60.14
32452;BME280;45528;52.102;5.242;2024-02-28T08:42:27;101722.0;;;11.98;60.02
32452;BME280;45528;52.102;5.242;2024-02-28T08:44:03;101730.0;;;11.98;59.91
32452;BME280;45528;52.102;5.242;2024-02-28T08:47:16;101733.0;;;11.98;60.02
32452;BME280;45528;52.102;5.242;2024-02-28T08:48:52;101731.0;;;12.0;60.01
32452;BME280;45528;52.102;5.242;2024-02-28T08:50:28;101735.0;;;12.19;59.44
32452;BME280;45528;52.102;5.242;2024-02-28T08:52:04;101731.0;;;12.15;59.35
32452;BME280;45528;52.102;5.242;2024-02-28T08:55:16;101730.0;;;12.09;59.59
32452;BME280;45528;52.102;5.242;2024-02-28T08:56:52;101732.0;;;12.08;59.79
32452;BME280;45528;52.102;5.242;2024-02-28T08:58:28;101730.0;;;12.12;59.83
32452;BME280;45528;52.102;5.242;2024-02-28T09:01:42;101730.0;;;12.22;59.89
32452;BME280;45528;52.102;5.242;2024-02-28T09:03:18;101732.0;;;12.23;59.74
32452;BME280;45528;52.102;5.242;2024-02-28T09:04:54;101728.0;;;12.14;59.61
32452;BME280;45528;52.102;5.242;2024-02-28T09:08:07;101730.0;;;12.26;59.52
32452;BME280;45528;52.102;5.242;2024-02-28T09:09:44;101723.0;;;12.38;59.44
32452;BME280;45528;52.102;5.242;2024-02-28T09:11:21;101723.0;;;12.37;59.13
32452;BME280;45528;52.102;5.242;2024-02-28T09:12:57;101719.0;;;12.32;59.2
32452;BME280;45528;52.102;5.242;2024-02-28T09:16:09;101721.0;;;12.45;59.26
32452;BME280;45528;52.102;5.242;2024-02-28T09:17:45;101718.0;;;12.5;58.66
32452;BME280;45528;52.102;5.242;2024-02-28T09:19:21;101716.0;;;12.44;58.7
32452;BME280;45528;52.102;5.242;2024-02-28T09:22:35;101714.0;;;12.47;58.95
32452;BME280;45528;52.102;5.242;2024-02-28T09:24:11;101711.0;;;12.65;58.78
32452;BME280;45528;52.102;5.242;2024-02-28T09:25:48;101715.0;;;12.71;58.26
32452;BME280;45528;52.102;5.242;2024-02-28T09:29:00;101718.0;;;12.75;58.19
32452;BME280;45528;52.102;5.242;2024-02-28T09:30:36;101718.0;;;12.92;58.11
32452;BME280;45528;52.102;5.242;2024-02-28T09:32:12;101726.0;;;13.11;57.68
32452;BME280;45528;52.102;5.242;2024-02-28T09:35:24;101725.0;;;13.13;57.37
32452;BME280;45528;52.102;5.242;2024-02-28T09:37:01;101725.0;;;13.08;57.7
32452;BME280;45528;52.102;5.242;2024-02-28T09:38:37;101727.0;;;13.37;57.41
32452;BME280;45528;52.102;5.242;2024-02-28T09:40:13;101723.0;;;13.3;57.3
32452;BME280;45528;52.102;5.242;2024-02-28T09:43:29;101724.0;;;13.53;57.28
32452;BME280;45528;52.102;5.242;2024-02-28T09:45:08;101727.0;;;13.49;56.92
32452;BME280;45528;52.102;5.242;2024-02-28T09:46:45;101730.0;;;13.51;56.98
32452;BME280;45528;52.102;5.242;2024-02-28T09:50:00;101736.0;;;13.47;56.91
32452;BME280;45528;52.102;5.242;2024-02-28T09:51:37;101737.0;;;13.56;57.09
32452;BME280;45528;52.102;5.242;2024-02-28T09:53:14;101741.0;;;13.72;57.05
32452;BME280;45528;52.102;5.242;2024-02-28T09:54:50;101742.0;;;13.89;56.57
32452;BME280;45528;52.102;5.242;2024-02-28T09:58:03;101741.0;;;13.91;56.12
32452;BME280;45528;52.102;5.242;2024-02-28T09:59:41;101750.0;;;13.99;55.98
32452;BME280;45528;52.102;5.242;2024-02-28T10:01:19;101747.0;;;14.02;55.39
32452;BME280;45528;52.102;5.242;2024-02-28T10:04:35;101755.0;;;14.05;55.61
32452;BME280;45528;52.102;5.242;2024-02-28T10:06:12;101764.0;;;14.23;55.35
32452;BME280;45528;52.102;5.242;2024-02-28T10:07:49;101760.0;;;14.12;55.31
32452;BME280;45528;52.102;5.242;2024-02-28T10:09:26;101761.0;;;13.93;55.65
32452;BME280;45528;52.102;5.242;2024-02-28T10:12:41;101751.0;;;14.23;55.67
32452;BME280;45528;52.102;5.242;2024-02-28T10:14:17;101755.0;;;14.29;55.41
32452;BME280;45528;52.102;5.242;2024-02-28T10:15:54;101751.0;;;14.18;55.56
32452;BME280;45528;52.102;5.242;2024-02-28T10:19:06;101744.0;;;14.38;55.4
32452;BME280;45528;52.102;5.242;2024-02-28T10:20:42;101741.0;;;14.41;55.25
32452;BME280;45528;52.102;5.242;2024-02-28T10:22:18;101738.0;;;14.55;55.4
32452;BME280;45528;52.102;5.242;2024-02-28T10:25:41;101738.0;;;14.54;55.05
32452;BME280;45528;52.102;5.242;2024-02-28T10:27:18;101741.0;;;14.7;55.24
32452;BME280;45528;52.102;5.242;2024-02-28T10:28:54;101738.0;;;14.69;55.11
32452;BME280;45528;52.102;5.242;2024-02-28T10:30:30;101733.0;;;14.87;54.7
32452;BME280;45528;52.102;5.242;2024-02-28T10:33:42;101732.0;;;14.89;54.53
32452;BME280;45528;52.102;5.242;2024-02-28T10:35:19;101738.0;;;14.82;54.67
32452;BME280;45528;52.102;5.242;2024-02-28T10:36:56;101739.0;;;14.81;54.67
32452;BME280;45528;52.102;5.242;2024-02-28T10:40:10;101742.0;;;14.86;54.58
32452;BME280;45528;52.102;5.242;2024-02-28T10:41:47;101736.0;;;14.78;54.97
32452;BME280;45528;52.102;5.242;2024-02-28T10:43:25;101735.0;;;14.7;55.28
32452;BME280;45528;52.102;5.242;2024-02-28T10:45:05;101734.0;;;14.84;55.22
32452;BME280;45528;52.102;5.242;2024-02-28T10:48:25;101737.0;;;14.93;55.17
32452;BME280;45528;52.102;5.242;2024-02-28T10:50:02;101737.0;;;14.91;55.14
32452;BME280;45528;52.102;5.242;2024-02-28T10:51:39;101734.0;;;14.92;55.29
32452;BME280;45528;52.102;5.242;2024-02-28T10:55:13;101733.0;;;14.85;55.57
32452;BME280;45528;52.102;5.242;2024-02-28T10:56:53;101730.0;;;15.01;55.54
32452;BME280;45528;52.102;5.242;2024-02-28T10:58:34;101735.0;;;15.26;54.95
32452;BME280;45528;52.102;5.242;2024-02-28T11:00:12;101731.0;;;15.18;54.98
32452;BME280;45528;52.102;5.242;2024-02-28T11:01:49;101730.0;;;15.48;54.7
32452;BME280;45528;52.102;5.242;2024-02-28T11:05:02;101732.0;;;15.5;54.58
32452;BME280;45528;52.102;5.242;2024-02-28T11:06:48;101727.0;;;15.48;54.2
32452;BME280;45528;52.102;5.242;2024-02-28T11:08:27;101727.0;;;15.37;54.68
32452;BME280;45528;52.102;5.242;2024-02-28T11:11:41;101724.0;;;15.71;54.13
32452;BME280;45528;52.102;5.242;2024-02-28T11:13:21;101727.0;;;15.66;53.97
32452;BME280;45528;52.102;5.242;2024-02-28T11:14:58;101723.0;;;15.63;54.16
32452;BME280;45528;52.102;5.242;2024-02-28T11:16:35;101725.0;;;15.32;54.33